Time;durP1;ratioP1;P1;durP2;ratioP2;P2;SDS_P1;SDS_P2;PMS_P1;PMS_P2;Temp;Humidity;BMP_temperature;BMP_pressure;BME280_temperature;BME280_humidity;BME280_pressure;Samples;Min_cycle;Max_cycle;Signal;HPM_P1;HPM_P2
2022/08/05 00:04:55;;;;;;;22.38;7.07;;;;;;;24.76;52.15;99737.47;10335937;28;20546;-77
2022/08/05 00:09:58;;;;;;;13.07;5.82;;;;;;;22.71;58.04;99629.38;10345166;28;20551;-77
2022/08/05 00:14:59;;;;;;;13.73;6.10;;;;;;;21.62;61.26;99638.28;10335128;28;20081;-77
2022/08/05 00:20:21;;;;;;;18.35;6.35;;;;;;;21.65;61.83;99621.94;10335458;28;20046;-77
2022/08/05 00:25:29;;;;;;;17.33;7.15;;;;;;;21.98;63.10;99651.97;10335625;28;20042;-77
2022/08/05 00:30:46;;;;;;;21.23;7.32;;;;;;;22.07;63.33;99661.66;10335533;28;20054;-77
2022/08/05 00:35:52;;;;;;;14.60;7.47;;;;;;;22.13;62.35;99647.66;10350243;28;20057;-76
2022/08/05 00:41:25;;;;;;;17.05;6.85;;;;;;;22.36;61.50;99649.38;10333423;28;20060;-76
2022/08/05 00:46:27;;;;;;;18.35;7.93;;;;;;;22.02;62.08;99603.53;10339625;28;20092;-76
2022/08/05 00:51:45;;;;;;;18.17;8.40;;;;;;;22.05;62.91;99541.16;10347055;28;20100;-76
2022/08/05 00:56:52;;;;;;;21.33;9.68;;;;;;;22.14;62.51;99518.78;10332507;28;20108;-76
2022/08/05 01:01:54;;;;;;;16.70;9.15;;;;;;;21.84;63.66;99453.84;10331165;28;20492;-77
2022/08/05 01:06:56;;;;;;;22.80;10.18;;;;;;;22.23;63.58;99558.50;10333173;28;20526;-77
2022/08/05 01:12:05;;;;;;;20.67;11.75;;;;;;;22.45;63.67;99600.34;10332477;28;20053;-76
2022/08/05 01:17:37;;;;;;;21.15;11.35;;;;;;;22.65;63.59;99585.59;10333821;28;20050;-76
2022/08/05 01:23:24;;;;;;;17.17;10.52;;;;;;;22.69;63.01;99584.22;10349389;28;20116;-76
2022/08/05 01:28:44;;;;;;;;;;;;;;;22.42;64.16;99592.72;10336177;28;20046;-76
2022/08/05 01:33:53;;;;;;;19.63;10.98;;;;;;;22.42;62.69;99534.09;10343769;28;19926;-76
2022/08/05 01:38:56;;;;;;;26.52;11.63;;;;;;;22.35;62.90;99556.28;10360084;28;20814;-76
2022/08/05 01:44:02;;;;;;;28.85;14.55;;;;;;;22.50;63.68;99530.53;10340891;28;20432;-76
2022/08/05 01:49:14;;;;;;;18.70;10.63;;;;;;;22.27;63.24;99493.22;10348455;28;20105;-76
2022/08/05 01:54:30;;;;;;;21.10;10.25;;;;;;;22.39;63.73;99520.31;10350801;28;20058;-76
2022/08/05 01:59:36;;;;;;;20.40;12.15;;;;;;;22.32;63.30;99484.69;10334742;28;20058;-76
2022/08/05 02:04:41;;;;;;;18.15;11.05;;;;;;;22.02;64.24;99467.72;10333571;28;20057;-76
2022/08/05 02:09:46;;;;;;;13.80;8.43;;;;;;;22.04;64.41;99444.44;10355571;28;20108;-76
2022/08/05 02:15:16;;;;;;;18.65;11.73;;;;;;;22.16;65.44;99488.31;10337344;28;20045;-76
2022/08/05 02:20:26;;;;;;;16.75;9.43;;;;;;;22.12;65.15;99491.50;10352708;28;20471;-76
2022/08/05 02:25:33;;;;;;;16.80;9.60;;;;;;;22.32;63.89;99471.38;10350170;28;20060;-76
2022/08/05 02:30:57;;;;;;;15.30;10.25;;;;;;;22.33;63.89;99470.38;10338135;28;20054;-76
2022/08/05 02:36:01;;;;;;;16.00;9.03;;;;;;;22.47;64.18;99493.59;10336813;28;20050;-76
2022/08/05 02:41:04;;;;;;;17.88;10.57;;;;;;;22.59;64.22;99538.31;10334584;28;20500;-75
2022/08/05 02:46:19;;;;;;;18.20;10.23;;;;;;;22.54;64.56;99556.66;10336657;28;20046;-76
2022/08/05 02:51:29;;;;;;;15.13;10.73;;;;;;;22.54;64.10;99583.31;10353506;28;20082;-76
2022/08/05 02:56:51;;;;;;;15.25;8.05;;;;;;;22.41;64.18;99617.69;10338713;28;20160;-76
2022/08/05 03:01:59;;;;;;;17.23;9.82;;;;;;;22.55;63.74;99626.78;10350625;28;20479;-76
2022/08/05 03:07:01;;;;;;;12.07;8.25;;;;;;;22.47;63.52;99659.66;10333410;28;20499;-76
2022/08/05 03:12:04;;;;;;;15.50;9.13;;;;;;;22.40;63.83;99666.69;10336758;28;20062;-76
2022/08/05 03:17:06;;;;;;;16.67;10.30;;;;;;;22.47;63.50;99683.66;10333955;28;20050;-76
2022/08/05 03:22:09;;;;;;;15.63;9.02;;;;;;;22.41;64.12;99710.94;10333471;28;20156;-76
2022/08/05 03:27:19;;;;;;;14.93;7.30;;;;;;;22.29;63.65;99687.53;10335347;28;20148;-76
2022/08/05 03:32:21;;;;;;;10.75;6.97;;;;;;;22.32;63.44;99709.34;10338462;28;20062;-76
2022/08/05 03:37:31;;;;;;;14.48;7.60;;;;;;;22.34;62.88;99712.66;10334836;28;20050;-76
2022/08/05 03:42:46;;;;;;;12.32;7.53;;;;;;;22.35;62.92;99745.47;10342269;28;20057;-76
2022/08/05 03:47:53;;;;;;;17.55;10.90;;;;;;;22.39;63.53;99736.94;10346291;28;20108;-76
2022/08/05 03:53:12;;;;;;;16.92;11.32;;;;;;;22.40;63.61;99732.44;10350971;28;20133;-76
2022/08/05 03:58:36;;;;;;;17.10;12.32;;;;;;;22.31;63.63;99734.31;10342352;28;20090;-76
2022/08/05 04:03:46;;;;;;;20.63;12.38;;;;;;;22.38;62.97;99721.97;10355706;28;20471;-76
2022/08/05 04:09:08;;;;;;;22.90;14.55;;;;;;;22.33;63.31;99652.38;10353829;28;20061;-76
2022/08/05 04:14:11;;;;;;;21.20;14.60;;;;;;;22.34;63.34;99648.72;10337914;28;20057;-76
2022/08/05 04:19:19;;;;;;;20.77;14.65;;;;;;;22.25;62.66;99652.41;10352365;28;20108;-76
2022/08/05 04:24:23;;;;;;;23.33;15.25;;;;;;;22.13;63.37;99677.75;10334693;28;20050;-76
2022/08/05 04:29:28;;;;;;;22.92;15.88;;;;;;;21.83;64.16;99663.34;10335749;28;20056;-76
2022/08/05 04:34:30;;;;;;;18.63;13.05;;;;;;;21.73;65.07;99694.63;10336683;28;20046;-77
2022/08/05 04:39:37;;;;;;;31.90;18.17;;;;;;;21.95;65.15;99754.34;10331992;28;20104;-77
2022/08/05 04:44:40;;;;;;;34.67;19.55;;;;;;;22.03;64.91;99773.00;10333994;28;20046;-75
2022/08/05 04:49:42;;;;;;;26.42;17.70;;;;;;;21.58;65.47;99756.66;10332568;28;20098;-75
2022/08/05 04:55:04;;;;;;;25.50;17.02;;;;;;;21.15;66.57;99723.19;10332431;28;20045;-75
2022/08/05 05:00:15;;;;;;;27.85;20.77;;;;;;;21.10;67.35;99659.03;10345816;28;20093;-75
2022/08/05 05:05:17;;;;;;;18.33;12.30;;;;;;;21.35;66.47;99654.59;10331527;28;20053;-75
2022/08/05 05:10:30;;;;;;;31.02;21.15;;;;;;;21.48;66.53;99682.34;10331094;28;20057;-75
2022/08/05 05:15:34;;;;;;;24.75;17.25;;;;;;;21.36;67.13;99696.13;10340435;28;20461;-75
2022/08/05 05:20:56;;;;;;;26.73;18.60;;;;;;;21.31;67.47;99691.31;10328629;28;20080;-75
2022/08/05 05:25:59;;;;;;;28.23;17.77;;;;;;;21.36;67.48;99701.44;10347051;28;20125;-75
2022/08/05 05:31:01;;;;;;;21.50;14.90;;;;;;;21.35;67.75;99692.66;10330977;28;20072;-75
2022/08/05 05:36:06;;;;;;;17.20;12.30;;;;;;;21.40;66.96;99670.84;10343462;28;20049;-75
2022/08/05 05:41:10;;;;;;;15.75;10.60;;;;;;;21.36;66.93;99685.50;10329911;28;20054;-75
2022/08/05 05:46:16;;;;;;;20.65;13.00;;;;;;;21.63;67.10;99701.97;10344576;28;20061;-75
2022/08/05 05:51:24;;;;;;;29.35;18.70;;;;;;;21.64;67.41;99703.63;10330474;28;20058;-75
2022/08/05 05:56:30;;;;;;;17.43;12.47;;;;;;;21.35;66.67;99649.25;10348801;28;20042;-75
2022/08/05 06:01:37;;;;;;;16.83;12.20;;;;;;;21.42;66.97;99642.25;10352332;28;20054;-75
2022/08/05 06:06:42;;;;;;;14.23;10.23;;;;;;;21.37;66.77;99647.25;10334602;28;20500;-75
2022/08/05 06:11:49;;;;;;;26.97;17.73;;;;;;;21.67;67.00;99651.88;10335800;28;20058;-75
2022/08/05 06:17:03;;;;;;;20.52;13.65;;;;;;;21.52;66.91;99616.31;10337650;28;20401;-75
2022/08/05 06:22:28;;;;;;;14.60;10.32;;;;;;;21.84;66.97;99669.50;10331279;28;20057;-75
2022/08/05 06:27:30;;;;;;;13.65;9.23;;;;;;;22.24;65.89;99674.72;10333530;28;20057;-75
2022/08/05 06:32:52;;;;;;;12.52;8.55;;;;;;;22.43;65.10;99657.50;10331712;28;20417;-75
2022/08/05 06:37:54;;;;;;;14.85;8.95;;;;;;;22.41;64.73;99652.31;10330739;28;20070;-75
2022/08/05 06:43:01;;;;;;;13.88;9.90;;;;;;;22.33;65.83;99667.56;10336352;28;20046;-75
2022/08/05 06:48:03;;;;;;;15.98;10.43;;;;;;;22.55;64.45;99627.63;10337868;28;20125;-75
2022/08/05 06:53:25;;;;;;;15.15;9.02;;;;;;;23.17;63.47;99672.91;10350952;28;20058;-75
2022/08/05 06:58:29;;;;;;;13.02;9.20;;;;;;;23.90;62.36;99679.28;10338302;28;20049;-75
2022/08/05 07:03:37;;;;;;;14.40;8.60;;;;;;;24.14;61.13;99668.34;10335773;28;20539;-75
2022/08/05 07:08:38;;;;;;;10.93;6.85;;;;;;;24.34;60.35;99673.97;10336405;28;20050;-75
2022/08/05 07:19:05;;;;;;;6.63;4.30;;;;;;;24.81;57.78;99676.22;10336254;28;20058;-75
2022/08/05 07:24:08;;;;;;;7.15;4.10;;;;;;;24.91;57.57;99688.28;10335444;28;20057;-75
2022/08/05 07:29:12;;;;;;;8.00;4.63;;;;;;;25.08;56.88;99694.22;10335409;28;20046;-76
2022/08/05 07:34:14;;;;;;;7.43;4.18;;;;;;;25.46;56.67;99717.09;10328168;28;20049;-76
2022/08/05 07:39:22;;;;;;;6.45;3.72;;;;;;;25.80;54.52;99727.03;10345908;28;20580;-77
2022/08/05 07:44:43;;;;;;;11.00;4.90;;;;;;;25.66;54.59;99733.31;10334310;28;20046;-78
2022/08/05 07:49:47;;;;;;;6.57;3.70;;;;;;;25.75;54.14;99740.19;10335373;28;20054;-79
2022/08/05 07:54:56;;;;;;;10.60;3.90;;;;;;;25.89;52.83;99748.13;10350221;28;20080;-79
2022/08/05 07:59:58;;;;;;;7.53;3.20;;;;;;;25.99;52.77;99760.41;10332960;28;20054;-78
2022/08/05 08:05:00;;;;;;;7.45;3.17;;;;;;;25.97;52.39;99765.97;10334198;28;20049;-78
2022/08/05 08:10:03;;;;;;;7.80;3.30;;;;;;;25.97;51.42;99762.44;10336036;28;20054;-78
2022/08/05 08:15:08;;;;;;;5.10;3.00;;;;;;;25.85;51.64;99770.16;10356301;28;20058;-80
2022/08/05 08:20:15;;;;;;;7.43;3.45;;;;;;;25.92;51.45;99778.28;10342936;28;20057;-79
2022/08/05 08:25:37;;;;;;;8.43;3.00;;;;;;;26.12;50.93;99784.63;10356829;28;20057;-79
2022/08/05 08:30:59;;;;;;;5.78;2.95;;;;;;;25.96;50.63;99783.06;10337377;28;20496;-80
2022/08/05 08:36:01;;;;;;;5.30;2.97;;;;;;;26.24;50.53;99777.72;10336838;28;20050;-80
2022/08/05 08:41:27;;;;;;;5.88;3.17;;;;;;;26.55;49.39;99770.06;10352508;28;20097;-80
2022/08/05 08:46:50;;;;;;;5.95;3.10;;;;;;;26.68;49.27;99760.28;10348432;28;20056;-80
2022/08/05 08:52:02;;;;;;;7.18;3.00;;;;;;;26.90;47.43;99746.72;10332651;28;20093;-80
2022/08/05 08:57:14;;;;;;;4.97;2.83;;;;;;;27.35;46.92;99760.31;10331438;28;20101;-80
2022/08/05 09:02:19;;;;;;;5.78;3.08;;;;;;;27.85;46.19;99763.50;10333995;28;20411;-80
2022/08/05 09:07:24;;;;;;;5.97;2.80;;;;;;;28.33;44.94;99758.72;10329618;28;20064;-80
2022/08/05 09:12:40;;;;;;;4.82;2.80;;;;;;;28.33;44.99;99742.59;10334699;28;20546;-80
2022/08/05 09:17:42;;;;;;;6.90;3.17;;;;;;;28.42;44.88;99763.66;10349869;28;20056;-80
2022/08/05 09:23:20;;;;;;;5.43;3.20;;;;;;;27.88;45.18;99779.22;10330450;28;20058;-80
2022/08/05 09:28:26;;;;;;;7.30;2.90;;;;;;;27.64;46.04;99775.25;10328320;28;20062;-80
2022/08/05 09:33:50;;;;;;;6.78;3.13;;;;;;;27.87;45.17;99758.75;10336227;28;20153;-81
2022/08/05 09:38:55;;;;;;;6.15;3.22;;;;;;;28.02;44.62;99745.91;10349276;28;20061;-80
2022/08/05 09:43:57;;;;;;;6.32;3.40;;;;;;;27.76;45.42;99737.88;10348164;28;20046;-81
2022/08/05 09:49:05;;;;;;;6.40;3.30;;;;;;;27.16;46.26;99736.94;10347660;28;20054;-81
2022/08/05 09:54:30;;;;;;;6.38;3.53;;;;;;;27.47;46.15;99745.25;10329233;28;20056;-81
2022/08/05 09:59:31;;;;;;;7.22;4.60;;;;;;;27.52;46.33;99757.25;10329773;28;20081;-81
2022/08/05 10:04:38;;;;;;;6.55;4.35;;;;;;;27.50;45.73;99771.69;10342042;28;20096;-81
2022/08/05 10:09:53;;;;;;;6.50;3.95;;;;;;;27.58;45.81;99765.31;10325849;28;20165;-82
2022/08/05 10:15:24;;;;;;;6.40;3.80;;;;;;;27.53;44.48;99759.72;10341261;28;21335;-81
2022/08/05 10:20:32;;;;;;;6.05;4.13;;;;;;;27.25;45.62;99751.84;10355163;28;20057;-81
2022/08/05 10:25:34;;;;;;;6.53;4.70;;;;;;;26.61;46.60;99780.03;10353721;28;20892;-81
2022/08/05 10:30:45;;;;;;;9.27;6.05;;;;;;;26.34;47.31;99805.84;10341457;28;20054;-81
2022/08/05 10:36:07;;;;;;;8.52;5.60;;;;;;;26.62;46.43;99809.34;10356126;28;20441;-80
2022/08/05 10:41:33;;;;;;;10.38;7.40;;;;;;;26.35;46.66;99830.78;10366188;28;20052;-80
2022/08/05 10:46:51;;;;;;;8.15;6.43;;;;;;;26.14;47.42;99831.66;10349079;28;20049;-80
2022/08/05 10:51:59;;;;;;;6.05;5.10;;;;;;;25.66;47.62;99843.13;10357674;28;20062;-81
2022/08/05 10:57:05;;;;;;;7.40;5.68;;;;;;;25.65;47.52;99831.59;10338050;28;20046;-81
2022/08/05 11:02:08;;;;;;;7.50;6.13;;;;;;;26.12;46.09;99839.06;10338333;28;20810;-81
2022/08/05 11:07:33;;;;;;;9.70;7.70;;;;;;;26.39;45.85;99851.66;10339199;28;20129;-81
2022/08/05 11:12:58;;;;;;;9.27;8.10;;;;;;;26.48;45.93;99855.03;10349275;28;20971;-81
2022/08/05 11:18:27;;;;;;;7.80;6.35;;;;;;;26.57;45.07;99862.75;10338594;28;20057;-81
2022/08/05 11:23:34;;;;;;;6.93;6.00;;;;;;;26.90;43.93;99868.31;10350297;28;20504;-80
2022/08/05 11:29:02;;;;;;;7.75;5.30;;;;;;;26.74;43.79;99867.81;10350188;28;20050;-80
2022/08/05 11:34:14;;;;;;;6.68;5.18;;;;;;;26.65;44.16;99867.97;10342456;28;20054;-80
2022/08/05 11:39:50;;;;;;;6.20;4.90;;;;;;;27.32;42.31;99852.03;10335934;28;20042;-80
2022/08/05 11:45:06;;;;;;;6.72;4.70;;;;;;;27.63;41.66;99851.50;10340392;28;20050;-79
2022/08/05 11:50:38;;;;;;;6.22;5.20;;;;;;;27.41;42.18;99864.25;10333059;28;20164;-80
2022/08/05 11:56:00;;;;;;;7.90;5.53;;;;;;;27.13;42.12;99865.34;10332674;28;20073;-82
2022/08/05 12:01:16;;;;;;;6.53;5.20;;;;;;;27.36;41.67;99880.13;10348419;28;20054;-80
2022/08/05 12:06:23;;;;;;;5.85;4.85;;;;;;;27.65;41.27;99878.19;10348385;28;20058;-80
2022/08/05 12:11:50;;;;;;;7.55;5.50;;;;;;;26.86;42.79;99899.28;10333743;28;20139;-80
2022/08/05 12:16:52;;;;;;;6.72;4.90;;;;;;;26.57;42.98;99912.88;10333989;28;20097;-80
2022/08/05 12:21:55;;;;;;;8.40;5.65;;;;;;;26.63;43.02;99915.63;10333855;28;20050;-80
2022/08/05 12:26:59;;;;;;;9.43;7.45;;;;;;;26.65;42.69;99916.25;10332797;28;20054;-79
2022/08/05 12:32:15;;;;;;;10.57;9.48;;;;;;;26.41;43.23;99931.91;10347816;28;20137;-79
2022/08/05 12:37:17;;;;;;;15.18;13.57;;;;;;;26.76;42.84;99927.47;10333412;28;20499;-79
2022/08/05 12:42:27;;;;;;;14.98;13.48;;;;;;;26.75;42.20;99937.38;10332027;28;20055;-79
2022/08/05 12:47:30;;;;;;;13.43;11.65;;;;;;;26.39;42.51;99960.78;10335504;28;20042;-80
2022/08/05 12:52:39;;;;;;;14.40;12.90;;;;;;;26.04;42.78;99988.47;10337190;28;20054;-79
2022/08/05 12:57:43;;;;;;;14.13;12.73;;;;;;;26.25;42.86;99988.47;10358624;28;20061;-79
2022/08/05 13:03:07;;;;;;;12.95;11.65;;;;;;;26.38;42.21;99994.00;10338904;28;20077;-79
2022/08/05 13:08:17;;;;;;;12.98;11.65;;;;;;;26.53;42.12;99997.41;10338883;28;20158;-80
2022/08/05 13:13:20;;;;;;;19.42;15.68;;;;;;;26.16;42.54;100006.53;10346862;28;20050;-80
2022/08/05 13:18:53;;;;;;;13.32;11.98;;;;;;;25.33;43.75;100035.50;10350780;28;20060;-79
2022/08/05 13:23:59;;;;;;;15.65;12.77;;;;;;;24.84;45.14;100042.34;10338030;28;20046;-78
2022/08/05 13:29:04;;;;;;;11.40;9.95;;;;;;;24.64;45.23;100062.53;10332745;28;20100;-79
2022/08/05 13:34:07;;;;;;;11.00;8.98;;;;;;;24.15;46.38;100078.03;10335726;28;20094;-83
2022/08/05 13:39:26;;;;;;;9.30;6.65;;;;;;;23.72;47.59;100091.88;10349290;28;20097;-83
2022/08/05 13:44:56;;;;;;;9.15;6.00;;;;;;;23.66;48.28;100096.06;10331909;28;20057;-83
2022/08/05 13:50:00;;;;;;;7.05;5.50;;;;;;;23.83;47.58;100097.69;10350876;28;20069;-85
2022/08/05 13:55:05;;;;;;;7.70;4.85;;;;;;;23.73;47.55;100089.06;10333244;28;20527;-84
2022/08/05 14:00:10;;;;;;;7.05;4.35;;;;;;;23.96;47.26;100097.97;10336653;28;20115;-85
2022/08/05 14:05:14;;;;;;;5.90;2.97;;;;;;;24.13;46.36;100098.75;10330282;28;20050;-85
2022/08/05 14:10:36;;;;;;;6.30;2.58;;;;;;;24.59;45.49;100087.13;10331589;28;20141;-85
2022/08/05 14:15:37;;;;;;;3.67;2.13;;;;;;;24.76;44.78;100078.00;10330269;28;20046;-85
2022/08/05 14:20:59;;;;;;;3.25;1.80;;;;;;;24.74;44.54;100090.75;10333158;28;20136;-84
2022/08/05 14:26:21;;;;;;;3.85;1.60;;;;;;;24.89;43.72;100098.81;10332246;28;20129;-84
2022/08/05 14:31:39;;;;;;;3.35;1.30;;;;;;;25.09;42.96;100087.44;10331743;28;20058;-85
2022/08/05 14:37:01;;;;;;;1.88;1.20;;;;;;;25.29;42.30;100082.41;10330996;28;20638;-86
2022/08/05 14:42:03;;;;;;;2.63;1.40;;;;;;;25.28;42.32;100082.59;10333543;28;20054;-85
2022/08/05 14:47:23;;;;;;;3.53;1.63;;;;;;;24.96;42.75;100081.03;10330363;28;20046;-85
2022/08/05 14:52:45;;;;;;;3.55;1.50;;;;;;;25.01;41.91;100086.69;10344079;28;20116;-86
2022/08/05 14:57:58;;;;;;;3.83;1.30;;;;;;;24.61;41.96;100084.28;10331857;28;20100;-79
2022/08/05 15:03:00;;;;;;;2.63;1.20;;;;;;;24.68;41.74;100090.56;10334878;28;20058;-79
2022/08/05 15:08:04;;;;;;;2.70;1.10;;;;;;;24.97;41.73;100090.72;10347386;28;20046;-79
2022/08/05 15:13:23;;;;;;;3.10;1.20;;;;;;;25.14;40.43;100094.09;10349592;28;20052;-79
2022/08/05 15:18:44;;;;;;;2.55;1.02;;;;;;;25.18;39.67;100101.59;10346486;28;20097;-79
2022/08/05 15:23:48;;;;;;;3.22;1.30;;;;;;;25.02;38.35;100094.53;10342215;28;20058;-80
2022/08/05 15:28:49;;;;;;;5.35;1.20;;;;;;;25.36;38.11;100096.75;10338126;28;20054;-79
2022/08/05 15:33:52;;;;;;;2.50;1.30;;;;;;;25.40;36.59;100095.38;10341280;28;20050;-80
2022/08/05 15:39:14;;;;;;;2.95;1.40;;;;;;;24.98;36.74;100100.41;10339308;28;20041;-79
2022/08/05 15:44:42;;;;;;;3.63;1.17;;;;;;;24.81;37.17;100106.91;10339175;28;20058;-79
2022/08/05 15:49:44;;;;;;;3.92;1.75;;;;;;;25.30;36.90;100096.63;10336812;28;20053;-79
2022/08/05 15:55:06;;;;;;;3.60;1.27;;;;;;;25.66;36.00;100085.06;10337366;28;20535;-81
2022/08/05 16:00:11;;;;;;;4.93;1.50;;;;;;;25.71;36.17;100085.31;10352312;28;20081;-81
2022/08/05 16:05:17;;;;;;;4.60;1.50;;;;;;;25.59;36.45;100086.78;10353298;28;20058;-81
2022/08/05 16:10:21;;;;;;;7.95;1.75;;;;;;;25.36;36.35;100094.09;10335738;28;20408;-81
2022/08/05 16:15:25;;;;;;;3.70;1.40;;;;;;;25.36;36.02;100104.78;10335075;28;20100;-81
2022/08/05 16:20:33;;;;;;;2.67;1.25;;;;;;;24.42;36.91;100114.16;10336878;28;20088;-80
2022/08/05 16:25:35;;;;;;;2.75;1.27;;;;;;;24.18;37.65;100118.59;10346674;28;20086;-80
2022/08/05 16:30:38;;;;;;;4.10;1.55;;;;;;;23.97;37.62;100117.50;10349730;28;20058;-78
2022/08/05 16:35:42;;;;;;;3.20;1.45;;;;;;;23.88;37.23;100130.06;10333471;28;20137;-79
2022/08/05 16:40:46;;;;;;;5.00;1.50;;;;;;;23.49;37.88;100142.53;10335316;28;20053;-78
2022/08/05 16:46:02;;;;;;;4.13;1.63;;;;;;;23.44;37.55;100136.84;10350456;28;20417;-78
2022/08/05 16:51:25;;;;;;;3.38;1.55;;;;;;;23.49;37.41;100139.84;10334704;28;20160;-79
2022/08/05 16:56:42;;;;;;;4.90;1.50;;;;;;;23.52;38.00;100131.50;10331934;28;20674;-78
2022/08/05 17:01:45;;;;;;;3.55;1.67;;;;;;;23.70;37.14;100142.78;10334500;28;20059;-79
2022/08/05 17:06:59;;;;;;;2.38;1.20;;;;;;;23.91;36.67;100143.09;10349959;28;20707;-78
2022/08/05 17:12:02;;;;;;;3.03;1.33;;;;;;;23.92;36.90;100146.59;10334182;28;20488;-78
2022/08/05 17:17:08;;;;;;;4.50;1.60;;;;;;;23.88;37.23;100154.09;10333948;28;20448;-78
2022/08/05 17:22:15;;;;;;;5.57;1.73;;;;;;;23.71;36.65;100157.00;10351196;28;20459;-78
2022/08/05 17:27:27;;;;;;;5.50;1.70;;;;;;;23.53;36.39;100159.88;10347661;28;20952;-79
2022/08/05 17:32:34;;;;;;;4.78;1.60;;;;;;;23.68;37.44;100160.81;10342916;28;20065;-78
2022/08/05 17:37:37;;;;;;;4.60;1.85;;;;;;;23.60;36.82;100171.53;10356529;28;20460;-79
2022/08/05 17:42:46;;;;;;;3.17;1.60;;;;;;;23.57;36.96;100176.38;10352126;28;20062;-79
2022/08/05 17:47:53;;;;;;;3.75;1.70;;;;;;;23.60;36.98;100189.38;10333825;28;20052;-78
2022/08/05 17:53:02;;;;;;;3.63;2.03;;;;;;;23.88;36.76;100178.13;10333737;28;20111;-78
2022/08/05 17:58:08;;;;;;;4.23;1.60;;;;;;;23.87;37.68;100191.66;10332987;28;20111;-78
2022/08/05 18:03:14;;;;;;;5.20;1.90;;;;;;;23.67;37.68;100209.06;10333188;28;20437;-77
2022/08/05 18:08:35;;;;;;;6.70;2.00;;;;;;;23.46;38.42;100207.75;10341143;28;20056;-78
2022/08/05 18:13:43;;;;;;;5.20;1.88;;;;;;;23.38;39.03;100210.41;10331843;28;20120;-77
2022/08/05 18:18:44;;;;;;;4.00;1.83;;;;;;;23.15;39.02;100225.38;10334311;28;20054;-77
2022/08/05 18:23:50;;;;;;;3.22;1.73;;;;;;;22.76;40.36;100234.94;10346474;28;20054;-77
2022/08/05 18:29:00;;;;;;;4.28;2.17;;;;;;;22.61;40.10;100239.22;10330581;28;20795;-78
2022/08/05 18:34:03;;;;;;;5.13;1.83;;;;;;;22.20;40.56;100240.03;10330168;28;20089;-78
2022/08/05 18:39:12;;;;;;;4.70;1.92;;;;;;;21.91;41.01;100248.31;10333131;28;20050;-78
2022/08/05 18:44:34;;;;;;;4.40;1.70;;;;;;;21.73;41.44;100251.03;10338741;28;20092;-78
2022/08/05 18:55:16;;;;;;;4.28;1.80;;;;;;;21.41;42.34;100277.38;10334717;28;20137;-78
2022/08/05 19:00:19;;;;;;;9.07;2.00;;;;;;;21.34;42.96;100283.44;10349307;28;20053;-78
2022/08/05 19:05:29;;;;;;;5.55;1.83;;;;;;;21.19;42.36;100311.53;10343121;28;20144;-78
2022/08/05 19:10:51;;;;;;;4.78;1.70;;;;;;;21.00;42.44;100321.28;10336756;28;20149;-75
2022/08/05 19:16:00;;;;;;;4.43;1.70;;;;;;;21.11;42.12;100333.53;10348620;28;20056;-77
2022/08/05 19:21:04;;;;;;;6.35;1.85;;;;;;;21.16;41.04;100341.06;10331445;28;20120;-76
2022/08/05 19:26:08;;;;;;;4.15;1.60;;;;;;;21.12;40.58;100355.66;10336944;28;20045;-76
2022/08/05 19:31:12;;;;;;;2.88;1.50;;;;;;;20.81;41.17;100363.91;10334229;28;20053;-77
2022/08/05 19:36:23;;;;;;;4.20;1.40;;;;;;;20.64;40.76;100371.84;10337927;28;20042;-77
2022/08/05 19:41:24;;;;;;;4.25;1.55;;;;;;;20.53;41.13;100386.09;10347165;28;20054;-77
2022/08/05 19:46:47;;;;;;;5.30;1.30;;;;;;;20.44;40.73;100389.59;10346656;28;20113;-77
2022/08/05 19:51:52;;;;;;;3.58;1.30;;;;;;;20.34;41.36;100396.75;10348444;28;20073;-77
2022/08/05 19:57:14;;;;;;;3.65;1.48;;;;;;;20.25;41.10;100406.41;10342642;28;20086;-77
2022/08/05 20:02:19;;;;;;;2.83;1.35;;;;;;;20.23;42.04;100410.22;10340149;28;20072;-77
2022/08/05 20:07:21;;;;;;;3.30;1.40;;;;;;;20.26;42.03;100428.50;10336426;28;20046;-77
2022/08/05 20:12:43;;;;;;;5.20;1.40;;;;;;;20.19;41.63;100430.06;10340848;28;20123;-78
2022/08/05 20:17:48;;;;;;;3.42;1.40;;;;;;;20.22;42.39;100440.38;10337058;28;20050;-78
2022/08/05 20:22:51;;;;;;;6.18;1.67;;;;;;;20.14;42.78;100438.44;10336327;28;20139;-76
2022/08/05 20:27:52;;;;;;;4.28;1.58;;;;;;;20.01;42.82;100437.06;10330720;28;20136;-76
2022/08/05 20:32:58;;;;;;;3.63;1.48;;;;;;;19.81;43.18;100448.59;10331342;28;20120;-76
2022/08/05 20:37:59;;;;;;;3.85;1.50;;;;;;;19.71;43.95;100453.88;10333548;28;20455;-77
2022/08/05 20:43:09;;;;;;;4.78;1.55;;;;;;;19.57;43.98;100456.94;10333949;28;20058;-78
2022/08/05 20:48:11;;;;;;;5.40;1.60;;;;;;;19.48;45.09;100456.91;10332443;28;20133;-76
2022/08/05 20:53:17;;;;;;;4.18;1.30;;;;;;;19.44;45.03;100477.53;10330834;28;20140;-77
2022/08/05 20:58:38;;;;;;;4.97;1.33;;;;;;;19.18;45.89;100484.28;10333101;28;20064;-76
2022/08/05 21:03:40;;;;;;;6.65;1.50;;;;;;;19.13;45.65;100495.31;10332767;28;20100;-77
2022/08/05 21:08:49;;;;;;;4.45;1.65;;;;;;;18.98;46.15;100493.09;10345420;28;20054;-76
2022/08/05 21:13:52;;;;;;;3.75;1.40;;;;;;;18.79;46.70;100499.13;10346717;28;20062;-76
2022/08/05 21:18:58;;;;;;;3.00;1.40;;;;;;;18.74;47.07;100506.63;10329226;28;20686;-77
2022/08/05 21:24:02;;;;;;;3.78;1.50;;;;;;;18.62;46.91;100521.75;10349234;28;20070;-77
2022/08/05 21:29:05;;;;;;;3.90;1.60;;;;;;;18.21;47.77;100534.09;10328822;28;20053;-77
2022/08/05 21:34:10;;;;;;;5.55;1.83;;;;;;;17.95;48.93;100527.41;10345226;28;20136;-77
2022/08/05 21:39:12;;;;;;;5.88;1.88;;;;;;;18.02;48.69;100539.16;10346291;28;20053;-76
2022/08/05 21:44:17;;;;;;;3.15;1.60;;;;;;;17.95;48.32;100535.34;10329360;28;20508;-77
2022/08/05 21:49:27;;;;;;;;;;;;;;;17.38;50.37;100539.00;10334497;28;20273;-82
2022/08/05 21:54:49;;;;;;;4.15;1.85;;;;;;;17.54;50.04;100531.56;10338614;28;19965;-82
2022/08/05 21:59:55;;;;;;;4.85;1.80;;;;;;;17.45;50.64;100537.56;10337350;28;20086;-81
2022/08/05 22:05:08;;;;;;;3.80;1.70;;;;;;;17.31;50.76;100545.69;10340713;28;20111;-81
2022/08/05 22:10:09;;;;;;;5.15;1.90;;;;;;;17.25;50.82;100546.16;10336069;28;21431;-81
2022/08/05 22:15:14;;;;;;;4.78;1.92;;;;;;;17.10;52.08;100547.34;10342220;28;20603;-81
2022/08/05 22:20:36;;;;;;;3.78;2.00;;;;;;;17.09;51.64;100556.25;10357977;28;20049;-81
2022/08/05 22:31:11;;;;;;;4.85;1.75;;;;;;;17.06;51.90;100572.31;10342685;28;20057;-81
2022/08/05 22:36:16;;;;;;;5.32;1.77;;;;;;;16.92;52.38;100573.38;10340291;28;20707;-81
2022/08/05 22:41:18;;;;;;;3.67;1.90;;;;;;;16.82;53.03;100579.47;10341922;28;20163;-81
2022/08/05 22:46:40;;;;;;;4.03;1.90;;;;;;;16.66;53.14;100565.72;10341539;28;20569;-81
2022/08/05 22:51:45;;;;;;;5.07;1.90;;;;;;;16.59;53.46;100567.16;10339120;28;20081;-81
2022/08/05 22:57:07;;;;;;;4.95;1.75;;;;;;;16.46;53.81;100576.94;10352219;28;20141;-81
2022/08/05 23:02:09;;;;;;;4.13;1.80;;;;;;;16.32;54.29;100583.22;10340253;28;20050;-80
2022/08/05 23:07:11;;;;;;;3.58;1.70;;;;;;;16.19;54.51;100583.25;10341155;28;20144;-82
2022/08/05 23:12:15;;;;;;;6.70;1.50;;;;;;;16.15;53.81;100592.34;10338087;28;20054;-81
2022/08/05 23:17:22;;;;;;;5.47;2.10;;;;;;;16.14;54.71;100603.84;10337946;28;20520;-81
2022/08/05 23:22:38;;;;;;;4.50;1.75;;;;;;;15.90;55.00;100597.69;10337666;28;20064;-81
2022/08/05 23:27:40;;;;;;;4.53;1.80;;;;;;;15.83;55.40;100612.28;10335056;28;20092;-80
2022/08/05 23:32:58;;;;;;;5.10;1.70;;;;;;;15.83;55.58;100617.56;10337925;28;20566;-81
2022/08/05 23:38:00;;;;;;;4.68;1.67;;;;;;;15.78;55.69;100627.56;10338076;28;20057;-81
2022/08/05 23:43:02;;;;;;;4.40;1.95;;;;;;;15.71;55.54;100626.34;10335724;28;20054;-81
2022/08/05 23:48:24;;;;;;;3.40;1.67;;;;;;;15.64;55.62;100632.97;10335816;28;20042;-81
2022/08/05 23:53:27;;;;;;;7.22;1.90;;;;;;;15.51;56.05;100632.13;10335614;28;20054;-81
2022/08/05 23:58:47;;;;;;;;;;;;;;;15.17;56.83;100635.34;10347245;28;20112;-81
